createdAt,value
2019-03-25T00:01:47.613Z,5.20
2019-03-25T00:04:14.434Z,5.30
2019-03-25T00:06:40.995Z,5.20
2019-03-25T00:09:07.404Z,5.20
2019-03-25T00:11:34.269Z,5.10
2019-03-25T00:14:00.795Z,5.10
2019-03-25T00:16:27.468Z,5.10
2019-03-25T00:18:54.103Z,5.00
2019-03-25T00:21:20.747Z,4.90
2019-03-25T00:23:47.270Z,4.90
2019-03-25T00:26:13.838Z,4.80
2019-03-25T00:28:40.462Z,4.90
2019-03-25T00:31:07.020Z,4.80
2019-03-25T00:33:33.640Z,5.00
2019-03-25T00:36:00.208Z,4.80
2019-03-25T00:38:26.931Z,4.90
2019-03-25T00:40:53.587Z,4.90
2019-03-25T00:43:20.216Z,4.70
2019-03-25T00:45:46.787Z,4.70
2019-03-25T00:48:14.275Z,4.60
2019-03-25T00:50:40.856Z,4.80
2019-03-25T00:53:08.364Z,4.70
2019-03-25T00:55:34.977Z,4.60
2019-03-25T00:58:01.535Z,4.60
2019-03-25T01:00:29.054Z,4.70
2019-03-25T01:02:57.312Z,4.80
2019-03-25T01:05:23.847Z,4.80
2019-03-25T01:07:50.499Z,4.70
2019-03-25T01:10:17.133Z,4.80
2019-03-25T01:12:43.684Z,4.90
2019-03-25T01:15:10.646Z,4.80
2019-03-25T01:17:37.899Z,4.80
2019-03-25T01:20:05.934Z,4.80
2019-03-25T01:22:32.485Z,4.90
2019-03-25T01:25:01.998Z,4.80
2019-03-25T01:27:27.349Z,4.70
2019-03-25T01:29:53.881Z,4.70
2019-03-25T01:32:20.540Z,4.80
2019-03-25T01:34:47.164Z,4.80
2019-03-25T01:37:14.715Z,4.80
2019-03-25T01:39:41.333Z,4.80
2019-03-25T01:42:07.858Z,4.80
2019-03-25T01:44:34.431Z,4.90
2019-03-25T01:47:00.954Z,4.90
2019-03-25T01:49:27.504Z,5.00
2019-03-25T01:51:54.151Z,5.00
2019-03-25T01:54:20.809Z,5.00
2019-03-25T01:56:47.326Z,5.00
2019-03-25T01:59:15.587Z,5.00
2019-03-25T02:01:42.120Z,4.80
2019-03-25T02:04:08.691Z,4.90
2019-03-25T02:06:35.219Z,4.80
2019-03-25T02:09:01.769Z,4.90
2019-03-25T02:11:28.288Z,4.90
2019-03-25T02:13:54.946Z,5.00
2019-03-25T02:16:21.474Z,4.90
2019-03-25T02:18:48.021Z,4.70
2019-03-25T02:21:14.531Z,4.70
2019-03-25T02:23:41.080Z,4.60
2019-03-25T02:26:08.488Z,4.60
2019-03-25T02:28:35.164Z,4.60
2019-03-25T02:31:01.693Z,4.60
2019-03-25T02:33:28.249Z,4.70
2019-03-25T02:35:54.781Z,4.60
2019-03-25T02:38:21.530Z,4.60
2019-03-25T02:40:48.163Z,4.70
2019-03-25T02:43:14.831Z,4.60
2019-03-25T02:45:41.355Z,4.60
2019-03-25T02:48:07.904Z,4.60
2019-03-25T02:50:34.544Z,4.50
2019-03-25T02:53:02.838Z,4.50
2019-03-25T02:55:41.446Z,4.40
2019-03-25T02:57:58.082Z,4.40
2019-03-25T03:00:32.942Z,4.30
2019-03-25T03:02:59.562Z,4.30
2019-03-25T03:05:26.320Z,4.30
2019-03-25T03:07:52.884Z,4.30
2019-03-25T03:10:19.383Z,4.40
2019-03-25T03:12:45.908Z,4.30
2019-03-25T03:15:12.464Z,4.30
2019-03-25T03:17:39.087Z,4.30
2019-03-25T03:20:06.667Z,4.30
2019-03-25T03:22:33.188Z,4.30
2019-03-25T03:24:59.746Z,4.30
2019-03-25T03:27:29.705Z,4.50
2019-03-25T03:29:54.799Z,4.60
2019-03-25T03:32:21.347Z,4.50
2019-03-25T03:34:47.887Z,4.40
2019-03-25T03:37:14.414Z,4.50
2019-03-25T03:39:41.183Z,4.50
2019-03-25T03:42:07.987Z,4.50
2019-03-25T03:44:34.553Z,4.50
2019-03-25T03:47:01.076Z,4.60
2019-03-25T03:49:27.650Z,4.60
2019-03-25T03:51:55.230Z,4.50
2019-03-25T03:54:22.385Z,4.60
2019-03-25T03:56:49.700Z,4.70
2019-03-25T03:59:16.872Z,4.70
2019-03-25T04:01:43.701Z,4.70
2019-03-25T04:04:10.369Z,4.60
2019-03-25T04:06:36.994Z,4.50
2019-03-25T04:09:04.854Z,4.60
2019-03-25T04:11:32.470Z,4.60
2019-03-25T04:13:59.096Z,4.60
2019-03-25T04:16:25.744Z,4.60
2019-03-25T04:18:52.464Z,4.60
2019-03-25T04:21:19.016Z,4.70
2019-03-25T04:23:46.517Z,4.70
2019-03-25T04:26:27.590Z,4.70
2019-03-25T04:28:41.616Z,4.70
2019-03-25T04:31:08.173Z,4.70
2019-03-25T04:33:34.908Z,4.70
2019-03-25T04:36:01.681Z,4.80
2019-03-25T04:38:28.292Z,4.90
2019-03-25T04:40:54.976Z,4.70
2019-03-25T04:43:21.619Z,4.60
2019-03-25T04:45:48.269Z,4.70
2019-03-25T04:48:14.904Z,4.60
2019-03-25T04:50:41.578Z,4.50
2019-03-25T04:53:08.345Z,4.40
2019-03-25T04:55:35.097Z,4.40
2019-03-25T04:58:01.735Z,4.40
2019-03-25T05:00:31.401Z,4.40
2019-03-25T05:02:58.136Z,4.40
2019-03-25T05:05:24.929Z,4.50
2019-03-25T05:07:51.438Z,4.60
2019-03-25T05:10:18.088Z,4.50
2019-03-25T05:12:44.872Z,4.50
2019-03-25T05:15:11.435Z,4.60
2019-03-25T05:17:38.218Z,4.40
2019-03-25T05:20:05.153Z,4.50
2019-03-25T05:22:31.728Z,4.40
2019-03-25T05:24:58.364Z,4.40
2019-03-25T05:27:24.938Z,4.50
2019-03-25T05:29:53.146Z,4.30
2019-03-25T05:32:21.378Z,4.40
2019-03-25T05:34:48.130Z,4.20
2019-03-25T05:37:14.903Z,4.20
2019-03-25T05:39:41.839Z,4.10
2019-03-25T05:42:08.590Z,4.30
2019-03-25T05:44:35.135Z,4.20
2019-03-25T05:47:01.756Z,4.00
2019-03-25T05:49:28.425Z,4.00
2019-03-25T05:51:55.009Z,4.10
2019-03-25T05:54:21.698Z,4.10
2019-03-25T05:56:48.314Z,4.30
2019-03-25T05:59:14.996Z,4.20
2019-03-25T06:01:44.062Z,4.20
2019-03-25T06:04:09.984Z,4.40
2019-03-25T06:06:36.708Z,4.40
2019-03-25T06:09:04.293Z,4.40
2019-03-25T06:11:30.822Z,4.40
2019-03-25T06:13:57.486Z,4.40
2019-03-25T06:16:24.157Z,4.20
2019-03-25T06:18:50.712Z,4.30
2019-03-25T06:21:17.284Z,4.40
2019-03-25T06:23:43.812Z,4.50
2019-03-25T06:26:10.384Z,4.60
2019-03-25T06:28:36.960Z,4.50
2019-03-25T06:31:03.546Z,4.50
2019-03-25T06:33:30.057Z,4.70
2019-03-25T06:35:56.604Z,4.80
2019-03-25T06:38:23.288Z,4.70
2019-03-25T06:40:49.814Z,4.70
2019-03-25T06:43:16.480Z,4.70
2019-03-25T06:45:43.009Z,4.80
2019-03-25T06:48:09.627Z,4.80
2019-03-25T06:50:36.227Z,4.80
2019-03-25T06:53:02.944Z,4.80
2019-03-25T06:55:29.465Z,4.70
2019-03-25T06:57:55.992Z,4.90
2019-03-25T07:00:22.785Z,5.00
2019-03-25T07:02:49.478Z,5.10
2019-03-25T07:05:16.089Z,5.20
2019-03-25T07:07:42.653Z,5.30
2019-03-25T07:10:09.685Z,5.30
2019-03-25T07:12:36.643Z,5.40
2019-03-25T07:15:06.925Z,5.30
2019-03-25T07:17:33.612Z,5.10
2019-03-25T07:20:01.310Z,5.40
2019-03-25T07:22:29.572Z,5.60
2019-03-25T07:24:56.135Z,5.30
2019-03-25T07:27:22.654Z,5.20
2019-03-25T07:29:49.232Z,5.20
2019-03-25T07:32:15.757Z,5.20
2019-03-25T07:34:42.541Z,5.30
2019-03-25T07:37:09.073Z,5.30
2019-03-25T07:39:35.703Z,5.10
2019-03-25T07:42:02.338Z,5.30
2019-03-25T07:44:28.853Z,5.10
2019-03-25T07:46:55.420Z,5.20
2019-03-25T07:49:22.046Z,5.10
2019-03-25T07:51:48.652Z,5.30
2019-03-25T07:54:15.391Z,5.30
2019-03-25T07:56:43.642Z,5.20
2019-03-25T07:59:10.256Z,5.40
2019-03-25T08:01:36.840Z,5.40
2019-03-25T08:04:03.653Z,5.60
2019-03-25T08:06:30.336Z,5.60
2019-03-25T08:09:03.683Z,5.70
2019-03-25T08:11:25.262Z,5.70
2019-03-25T08:13:51.772Z,5.60
2019-03-25T08:16:18.358Z,5.60
2019-03-25T08:18:45.016Z,5.80
2019-03-25T08:21:11.644Z,5.70
2019-03-25T08:23:38.281Z,5.70
2019-03-25T08:26:04.772Z,5.60
2019-03-25T08:28:31.332Z,5.80
2019-03-25T08:30:57.881Z,6.00
2019-03-25T08:33:24.399Z,5.80
2019-03-25T08:35:50.984Z,6.00
2019-03-25T08:38:17.601Z,6.10
2019-03-25T08:40:44.292Z,6.20
2019-03-25T08:43:10.822Z,6.40
2019-03-25T08:45:38.562Z,6.30
2019-03-25T08:48:05.259Z,6.10
2019-03-25T08:50:33.312Z,6.00
2019-03-25T08:52:59.760Z,6.00
2019-03-25T08:55:26.666Z,6.30
2019-03-25T08:57:53.841Z,6.40
2019-03-25T09:00:20.903Z,6.30
2019-03-25T09:02:47.532Z,6.30
2019-03-25T09:05:14.259Z,6.30
2019-03-25T09:07:40.819Z,6.20
2019-03-25T09:10:08.266Z,6.50
2019-03-25T09:12:36.129Z,6.30
2019-03-25T09:15:07.548Z,6.30
2019-03-25T09:17:34.208Z,6.20
2019-03-25T09:20:00.793Z,6.40
2019-03-25T09:22:27.425Z,6.50
2019-03-25T09:24:53.982Z,6.90
2019-03-25T09:27:20.603Z,6.90
2019-03-25T09:29:47.261Z,6.90
2019-03-25T09:32:13.779Z,6.60
2019-03-25T09:34:40.375Z,6.60
2019-03-25T09:37:06.892Z,6.70
2019-03-25T09:39:33.515Z,6.80
2019-03-25T09:42:00.090Z,6.40
2019-03-25T09:44:26.634Z,6.10
2019-03-25T09:46:53.292Z,6.10
2019-03-25T09:49:19.919Z,6.30
2019-03-25T09:51:46.517Z,6.30
2019-03-25T09:54:13.073Z,6.40
2019-03-25T09:56:41.444Z,6.60
2019-03-25T09:59:08.064Z,6.50
2019-03-25T10:01:34.617Z,6.50
2019-03-25T10:04:01.139Z,6.90
2019-03-25T10:06:27.909Z,7.00
2019-03-25T10:08:54.433Z,6.90
2019-03-25T10:11:21.011Z,7.10
2019-03-25T10:13:47.692Z,7.50
2019-03-25T10:16:14.364Z,7.30
2019-03-25T10:18:40.990Z,6.80
2019-03-25T10:21:08.762Z,6.50
2019-03-25T10:23:36.346Z,6.30
2019-03-25T10:26:03.325Z,6.40
2019-03-25T10:28:29.766Z,6.40
2019-03-25T10:30:56.388Z,5.90
2019-03-25T10:33:23.250Z,5.50
2019-03-25T10:35:50.053Z,5.30
2019-03-25T10:38:19.862Z,5.20
2019-03-25T10:40:45.246Z,5.10
2019-03-25T10:43:11.914Z,5.00
2019-03-25T10:45:38.632Z,5.00
2019-03-25T10:48:05.305Z,5.20
2019-03-25T10:50:31.869Z,5.30
2019-03-25T10:52:58.436Z,5.40
2019-03-25T10:55:25.022Z,5.50
2019-03-25T10:57:51.538Z,5.40
2019-03-25T11:00:18.674Z,5.50
2019-03-25T11:02:46.965Z,5.50
2019-03-25T11:05:14.024Z,5.30
2019-03-25T11:10:07.896Z,5.30
2019-03-25T11:12:34.467Z,5.30
2019-03-25T11:15:00.884Z,5.10
2019-03-25T11:17:27.658Z,5.30
2019-03-25T11:19:54.181Z,5.30
2019-03-25T11:22:20.746Z,5.50
2019-03-25T11:24:48.064Z,5.90
2019-03-25T11:27:14.619Z,6.00
2019-03-25T11:29:42.894Z,6.00
2019-03-25T11:32:09.471Z,6.30
2019-03-25T11:34:36.089Z,6.50
2019-03-25T11:37:02.988Z,6.80
2019-03-25T11:39:29.410Z,6.90
2019-03-25T11:41:55.928Z,6.80
2019-03-25T11:44:22.480Z,6.70
2019-03-25T11:46:49.060Z,6.30
2019-03-25T11:49:15.570Z,5.90
2019-03-25T11:51:42.103Z,5.70
2019-03-25T11:54:08.693Z,5.80
2019-03-25T11:56:35.268Z,6.10
2019-03-25T11:59:02.951Z,6.20
2019-03-25T12:01:29.766Z,6.30
2019-03-25T12:03:56.437Z,6.50
2019-03-25T12:06:23.060Z,6.80
2019-03-25T12:08:49.679Z,6.90
2019-03-25T12:11:16.338Z,7.00
2019-03-25T12:13:42.873Z,6.90
2019-03-25T12:16:09.454Z,6.80
2019-03-25T12:18:37.364Z,6.90
2019-03-25T12:21:05.151Z,7.00
2019-03-25T12:23:31.719Z,7.30
2019-03-25T12:25:58.280Z,7.40
2019-03-25T12:28:24.921Z,7.50
2019-03-25T12:30:51.591Z,7.60
2019-03-25T12:33:18.728Z,7.50
2019-03-25T12:35:45.344Z,7.60
2019-03-25T12:38:12.122Z,7.80
2019-03-25T12:40:38.761Z,7.70
2019-03-25T12:43:05.433Z,7.90
2019-03-25T12:45:31.952Z,7.90
2019-03-25T12:47:59.121Z,8.40
2019-03-25T12:50:25.753Z,8.30
2019-03-25T12:52:52.439Z,8.40
2019-03-25T12:55:19.208Z,8.30
2019-03-25T12:57:45.756Z,8.40
2019-03-25T13:00:12.838Z,8.20
2019-03-25T13:02:39.335Z,8.40
2019-03-25T13:05:06.628Z,8.80
2019-03-25T13:07:33.249Z,8.90
2019-03-25T13:09:59.785Z,9.00
2019-03-25T13:12:26.365Z,9.30
2019-03-25T13:14:52.936Z,9.40
2019-03-25T13:17:19.592Z,9.10
2019-03-25T13:19:46.254Z,8.60
2019-03-25T13:22:12.928Z,8.40
2019-03-25T13:24:39.495Z,8.90
2019-03-25T13:27:06.124Z,9.20
2019-03-25T13:29:32.831Z,9.00
2019-03-25T13:31:59.452Z,9.20
2019-03-25T13:34:25.984Z,8.70
2019-03-25T13:36:52.654Z,8.80
2019-03-25T13:39:19.174Z,8.60
2019-03-25T13:41:45.836Z,8.60
2019-03-25T13:44:12.365Z,8.60
2019-03-25T13:46:38.940Z,8.90
2019-03-25T13:49:05.460Z,9.20
2019-03-25T13:51:32.134Z,9.70
2019-03-25T13:53:58.797Z,10.10
2019-03-25T13:56:25.562Z,10.00
2019-03-25T13:58:52.237Z,10.00
2019-03-25T14:01:18.916Z,9.30
2019-03-25T14:03:45.584Z,9.20
2019-03-25T14:06:12.262Z,9.40
2019-03-25T14:08:38.783Z,9.30
2019-03-25T14:11:05.365Z,9.10
2019-03-25T14:13:31.954Z,9.30
2019-03-25T14:15:58.468Z,10.40
2019-03-25T14:18:24.990Z,10.70
2019-03-25T14:20:51.558Z,11.00
2019-03-25T14:23:18.233Z,11.40
2019-03-25T14:25:44.945Z,11.20
2019-03-25T14:28:11.741Z,10.50
2019-03-25T14:30:38.253Z,9.80
2019-03-25T14:33:04.790Z,9.40
2019-03-25T14:35:31.457Z,9.30
2019-03-25T14:37:58.025Z,9.70
2019-03-25T14:40:25.581Z,10.90
2019-03-25T14:42:52.224Z,11.50
2019-03-25T14:45:26.259Z,10.70
2019-03-25T14:47:47.321Z,10.10
2019-03-25T14:50:14.143Z,9.70
2019-03-25T14:52:40.835Z,9.50
2019-03-25T14:55:07.895Z,9.00
2019-03-25T14:57:34.411Z,8.90
2019-03-25T15:00:01.145Z,10.70
2019-03-25T15:02:27.660Z,12.20
2019-03-25T15:04:54.644Z,12.40
2019-03-25T15:07:21.265Z,12.50
2019-03-25T15:09:47.901Z,11.90
2019-03-25T15:12:14.587Z,10.40
2019-03-25T15:14:41.094Z,9.40
2019-03-25T15:17:07.883Z,9.00
2019-03-25T15:19:34.418Z,8.80
2019-03-25T15:22:00.940Z,8.50
2019-03-25T15:24:27.504Z,8.40
2019-03-25T15:26:54.130Z,8.10
2019-03-25T15:29:20.760Z,7.90
2019-03-25T15:31:47.438Z,7.90
2019-03-25T15:34:14.160Z,7.70
2019-03-25T15:36:42.440Z,7.70
2019-03-25T15:39:09.057Z,7.50
2019-03-25T15:41:35.620Z,7.70
2019-03-25T15:44:02.305Z,7.60
2019-03-25T15:46:28.920Z,7.50
2019-03-25T15:48:55.603Z,7.40
2019-03-25T15:51:22.112Z,7.50
2019-03-25T15:53:48.651Z,7.40
2019-03-25T15:56:15.248Z,7.40
2019-03-25T15:58:41.873Z,7.50
2019-03-25T16:01:08.452Z,7.40
2019-03-25T16:03:35.068Z,7.40
2019-03-25T16:06:01.731Z,7.30
2019-03-25T16:08:28.252Z,7.20
2019-03-25T16:10:54.825Z,7.10
2019-03-25T16:13:21.463Z,7.10
2019-03-25T16:15:48.905Z,7.10
2019-03-25T16:18:36.473Z,6.90
2019-03-25T16:21:03.928Z,7.00
2019-03-25T16:23:30.544Z,6.90
2019-03-25T16:25:57.403Z,7.00
2019-03-25T16:28:24.533Z,7.00
2019-03-25T16:30:58.666Z,7.00
2019-03-25T16:33:20.547Z,7.20
2019-03-25T16:35:47.217Z,7.20
2019-03-25T16:38:13.735Z,7.10
2019-03-25T16:40:40.300Z,7.00
2019-03-25T16:43:06.828Z,6.90
2019-03-25T16:45:33.358Z,6.90
2019-03-25T16:47:59.904Z,6.90
2019-03-25T16:50:26.438Z,7.00
2019-03-25T16:52:52.995Z,7.00
2019-03-25T16:55:19.614Z,6.90
2019-03-25T16:57:47.173Z,6.80
2019-03-25T17:00:13.807Z,6.80
2019-03-25T17:02:40.584Z,6.80
2019-03-25T17:05:07.315Z,6.80
2019-03-25T17:07:33.961Z,6.90
2019-03-25T17:10:03.788Z,6.90
2019-03-25T17:12:30.449Z,6.90
2019-03-25T17:14:57.068Z,6.80
2019-03-25T17:17:23.822Z,6.80
2019-03-25T17:19:50.357Z,6.90
2019-03-25T17:22:16.923Z,7.00
2019-03-25T17:24:43.450Z,7.00
2019-03-25T17:27:10.012Z,6.90
2019-03-25T17:29:36.536Z,6.90
2019-03-25T17:32:03.107Z,6.90
2019-03-25T17:34:29.899Z,6.90
2019-03-25T17:36:56.551Z,6.90
2019-03-25T17:39:23.090Z,6.90
2019-03-25T17:41:49.763Z,6.90
2019-03-25T17:44:16.465Z,6.90
2019-03-25T17:46:44.107Z,6.90
2019-03-25T17:49:10.555Z,7.00
2019-03-25T17:51:37.211Z,7.00
2019-03-25T17:54:03.879Z,7.00
2019-03-25T17:56:30.857Z,7.00
2019-03-25T17:58:57.479Z,7.00
2019-03-25T18:01:32.235Z,7.10
2019-03-25T18:03:53.965Z,7.00
2019-03-25T18:06:20.580Z,6.90
2019-03-25T18:08:47.147Z,7.00
2019-03-25T18:11:13.872Z,6.90
2019-03-25T18:13:40.421Z,7.00
2019-03-25T18:16:07.131Z,7.00
2019-03-25T18:18:33.914Z,7.00
2019-03-25T18:21:00.432Z,6.90
2019-03-25T18:23:27.196Z,6.90
2019-03-25T18:25:53.825Z,6.90
2019-03-25T18:28:20.563Z,7.00
2019-03-25T18:30:47.111Z,7.00
2019-03-25T18:33:13.679Z,6.90
2019-03-25T18:35:40.300Z,6.80
2019-03-25T18:38:06.957Z,6.80
2019-03-25T18:40:33.483Z,6.70
2019-03-25T18:43:00.557Z,6.60
2019-03-25T18:45:26.988Z,6.60
2019-03-25T18:47:53.556Z,6.60
2019-03-25T18:50:20.068Z,6.70
2019-03-25T18:52:46.646Z,6.60
2019-03-25T18:55:13.196Z,6.60
2019-03-25T18:57:39.751Z,6.60
2019-03-25T19:00:07.896Z,6.60
2019-03-25T19:02:34.848Z,6.60
2019-03-25T19:05:02.504Z,6.50
2019-03-25T19:07:29.333Z,6.40
2019-03-25T19:09:56.067Z,6.30
2019-03-25T19:12:22.699Z,6.10
2019-03-25T19:14:49.273Z,6.10
2019-03-25T19:17:16.041Z,6.30
2019-03-25T19:19:42.579Z,6.00
2019-03-25T19:22:09.220Z,6.10
2019-03-25T19:24:35.796Z,5.90
2019-03-25T19:27:04.371Z,5.80
2019-03-25T19:29:30.941Z,5.90
2019-03-25T19:32:06.135Z,5.80
2019-03-25T19:34:25.959Z,5.80
2019-03-25T19:36:52.503Z,5.80
2019-03-25T19:39:19.452Z,5.80
2019-03-25T19:41:46.472Z,5.60
2019-03-25T19:44:13.113Z,5.70
2019-03-25T19:46:39.673Z,5.60
2019-03-25T19:49:06.692Z,5.60
2019-03-25T19:51:33.256Z,5.60
2019-03-25T19:54:00.052Z,5.50
2019-03-25T19:56:26.545Z,5.50
2019-03-25T19:58:53.471Z,5.50
2019-03-25T20:01:20.262Z,5.50
2019-03-25T20:03:47.388Z,5.50
2019-03-25T20:06:25.575Z,5.50
2019-03-25T20:08:43.232Z,5.50
2019-03-25T20:11:10.427Z,5.30
2019-03-25T20:13:37.141Z,5.30
2019-03-25T20:16:03.740Z,5.40
2019-03-25T20:18:30.588Z,5.40
2019-03-25T20:20:57.234Z,5.30
2019-03-25T20:23:23.877Z,5.20
2019-03-25T20:25:53.356Z,5.10
2019-03-25T20:28:19.980Z,5.00
2019-03-25T20:30:46.946Z,4.90
2019-03-25T20:33:13.644Z,4.90
2019-03-25T20:35:40.905Z,4.90
2019-03-25T20:38:07.516Z,5.00
2019-03-25T20:40:34.309Z,5.00
2019-03-25T20:43:01.764Z,4.90
2019-03-25T20:45:28.412Z,4.60
2019-03-25T20:47:55.299Z,4.80
2019-03-25T20:50:21.803Z,4.80
2019-03-25T20:52:48.374Z,4.80
2019-03-25T20:55:15.001Z,4.80
2019-03-25T20:57:41.580Z,4.90
2019-03-25T21:00:10.227Z,4.60
2019-03-25T21:02:44.988Z,4.50
2019-03-25T21:05:05.459Z,4.70
2019-03-25T21:07:31.986Z,4.70
2019-03-25T21:09:58.564Z,4.60
2019-03-25T21:12:25.245Z,4.40
2019-03-25T21:14:51.942Z,4.50
2019-03-25T21:17:18.546Z,4.50
2019-03-25T21:19:46.867Z,4.50
2019-03-25T21:22:13.458Z,4.40
2019-03-25T21:24:40.248Z,4.30
2019-03-25T21:27:06.905Z,4.40
2019-03-25T21:29:33.493Z,4.40
2019-03-25T21:32:00.051Z,4.40
2019-03-25T21:34:28.479Z,4.20
2019-03-25T21:36:55.172Z,4.20
2019-03-25T21:39:21.772Z,4.20
2019-03-25T21:41:48.356Z,4.20
2019-03-25T21:44:15.191Z,4.00
2019-03-25T21:46:41.731Z,4.00
2019-03-25T21:49:08.367Z,3.90
2019-03-25T21:51:34.985Z,3.60
2019-03-25T21:54:01.791Z,3.70
2019-03-25T21:56:28.564Z,3.70
2019-03-25T21:58:55.135Z,3.80
2019-03-25T22:01:21.762Z,3.70
2019-03-25T22:03:48.436Z,3.70
2019-03-25T22:06:15.689Z,3.70
2019-03-25T22:08:43.507Z,3.70
2019-03-25T22:11:11.800Z,3.70
2019-03-25T22:13:38.355Z,3.50
2019-03-25T22:16:04.942Z,3.60
2019-03-25T22:18:31.617Z,3.50
2019-03-25T22:20:58.249Z,3.70
2019-03-25T22:23:24.918Z,3.60
2019-03-25T22:25:52.223Z,3.50
2019-03-25T22:28:19.510Z,3.40
2019-03-25T22:30:46.047Z,3.40
2019-03-25T22:33:24.795Z,3.50
2019-03-25T22:35:40.985Z,3.60
2019-03-25T22:38:07.537Z,3.60
2019-03-25T22:40:34.051Z,3.50
2019-03-25T22:43:00.643Z,3.40
2019-03-25T22:45:28.295Z,3.50
2019-03-25T22:47:54.921Z,3.50
2019-03-25T22:50:25.308Z,3.50
2019-03-25T22:52:51.963Z,3.50
2019-03-25T22:55:18.545Z,3.80
2019-03-25T22:57:45.153Z,4.00
2019-03-25T23:00:15.628Z,3.80
2019-03-25T23:02:42.153Z,3.90
2019-03-25T23:05:08.947Z,4.10
2019-03-25T23:07:37.167Z,3.90
2019-03-25T23:10:04.061Z,3.70
2019-03-25T23:12:32.276Z,3.40
2019-03-25T23:14:58.935Z,3.50
2019-03-25T23:17:25.499Z,3.70
2019-03-25T23:19:52.116Z,3.60
2019-03-25T23:22:18.780Z,3.60
2019-03-25T23:24:45.412Z,3.50
2019-03-25T23:27:12.784Z,3.50
2019-03-25T23:29:39.864Z,3.40
2019-03-25T23:32:07.551Z,3.50
2019-03-25T23:34:34.167Z,3.40
2019-03-25T23:37:00.737Z,3.60
2019-03-25T23:39:27.273Z,3.70
2019-03-25T23:41:53.840Z,3.70
2019-03-25T23:44:20.376Z,3.80
2019-03-25T23:46:46.945Z,3.80
2019-03-25T23:49:13.477Z,3.90
2019-03-25T23:51:40.152Z,3.90
2019-03-25T23:54:13.754Z,3.70
2019-03-25T23:56:40.754Z,3.80
2019-03-25T23:59:07.391Z,3.70
